Time;durP1;ratioP1;P1;durP2;ratioP2;P2;SDS_P1;SDS_P2;PMS_P1;PMS_P2;Temp;Humidity;BMP_temperature;BMP_pressure;BME280_temperature;BME280_humidity;BME280_pressure;Samples;Min_cycle;Max_cycle;Signal;HPM_P1;HPM_P2
2023/06/30 00:00:56;;;;;;;;;1.00;1.00;;;;;22.18;67.08;100803.59;5000805;28;48141;-76
2023/06/30 00:03:24;;;;;;;;;1.67;1.33;;;;;22.13;67.19;100822.31;5029721;28;46144;-75
2023/06/30 00:05:50;;;;;;;;;1.00;1.00;;;;;21.73;67.85;100821.94;5016542;28;45423;-75
2023/06/30 00:08:15;;;;;;;;;1.00;1.00;;;;;21.65;68.51;100830.88;5032882;28;45390;-76
2023/06/30 00:10:41;;;;;;;;;2.00;1.00;;;;;21.50;68.91;100823.06;5020155;28;45292;-75
2023/06/30 00:13:07;;;;;;;;;1.33;1.33;;;;;21.28;68.39;100811.72;5029732;28;45761;-75
2023/06/30 00:15:32;;;;;;;;;2.33;2.00;;;;;21.30;68.88;100814.38;5027301;28;45433;-76
2023/06/30 00:17:58;;;;;;;;;3.00;2.00;;;;;21.30;68.01;100794.00;5022601;28;45435;-77
2023/06/30 00:20:23;;;;;;;;;2.00;2.00;;;;;21.37;68.63;100813.44;5032004;28;46070;-76
2023/06/30 00:22:49;;;;;;;;;2.00;2.00;;;;;21.42;68.11;100808.94;5019416;28;45248;-75
2023/06/30 00:25:15;;;;;;;;;2.00;2.00;;;;;21.38;68.58;100799.22;5027079;28;45637;-75
2023/06/30 00:27:40;;;;;;;;;2.00;2.00;;;;;21.39;67.45;100798.34;5021333;28;45478;-75
2023/06/30 00:30:06;;;;;;;;;2.00;2.00;;;;;21.34;67.92;100790.41;5016460;28;46313;-75
2023/06/30 00:32:32;;;;;;;;;2.00;2.00;;;;;21.38;67.45;100789.47;5016837;28;45443;-75
2023/06/30 00:34:58;;;;;;;;;1.00;1.00;;;;;21.41;67.40;100786.81;5016612;28;45379;-75
2023/06/30 00:37:25;;;;;;;;;2.00;2.00;;;;;21.42;67.40;100785.88;5022320;28;45440;-76
2023/06/30 00:39:50;;;;;;;;;3.33;3.00;;;;;21.40;67.60;100776.19;5035973;28;46233;-74
2023/06/30 00:42:16;;;;;;;;;2.00;2.00;;;;;21.58;67.37;100773.34;5021748;28;45553;-77
2023/06/30 00:44:42;;;;;;;;;3.00;2.67;;;;;21.69;67.96;100767.03;5032148;28;46056;-76
2023/06/30 00:47:07;;;;;;;;;3.00;2.67;;;;;21.67;67.68;100756.41;5017073;28;45149;-76
2023/06/30 00:49:33;;;;;;;;;2.00;2.00;;;;;;;;5015003;28;45677;-74
2023/06/30 00:51:59;;;;;;;;;3.00;2.00;;;;;21.65;67.92;100785.66;5017322;28;45345;-75
2023/06/30 00:54:25;;;;;;;;;2.00;2.00;;;;;21.52;68.63;100792.00;5017381;28;45217;-75
2023/06/30 00:56:51;;;;;;;;;2.67;2.00;;;;;21.49;67.91;100784.09;5017488;28;45548;-75
2023/06/30 00:59:16;;;;;;;;;2.00;2.00;;;;;21.39;68.33;100793.03;5017328;28;46082;-75
2023/06/30 01:01:58;;;;;;;;;2.00;2.00;;;;;21.37;68.88;100786.84;5017216;28;45411;-74
2023/06/30 01:04:26;;;;;;;;;2.00;2.00;;;;;21.45;68.36;100785.91;5017305;28;45277;-75
2023/06/30 01:07:08;;;;;;;;;2.33;2.00;;;;;21.48;67.90;100774.34;5017393;28;45249;-74
2023/06/30 01:09:38;;;;;;;;;3.33;2.33;;;;;21.49;68.12;100770.81;5017079;28;45368;-74
2023/06/30 01:12:05;;;;;;;;;2.00;2.00;;;;;21.44;68.43;100780.59;5017325;28;45442;-76
2023/06/30 01:14:31;;;;;;;;;2.33;2.00;;;;;21.46;68.16;100789.44;5017105;28;45425;-76
2023/06/30 01:16:59;;;;;;;;;4.33;3.00;;;;;21.35;68.46;100778.03;5017551;28;45577;-76
2023/06/30 01:19:35;;;;;;;;;2.00;2.00;;;;;21.26;68.56;100777.19;5020081;28;45413;-76
2023/06/30 01:22:22;;;;;;;;;3.33;2.00;;;;;21.21;68.75;100780.81;5020479;28;45327;-76
2023/06/30 01:24:49;;;;;;;;;2.00;2.00;;;;;21.21;68.84;100776.38;5020868;28;45500;-75
2023/06/30 01:27:15;;;;;;;;;1.00;1.00;;;;;21.30;68.66;100795.78;5020828;28;45470;-73
2023/06/30 01:29:42;;;;;;;;;2.00;2.00;;;;;21.30;68.62;100790.47;5020813;28;45800;-76
2023/06/30 01:32:09;;;;;;;;;2.00;2.00;;;;;21.34;68.66;100792.19;5027601;28;45459;-76
2023/06/30 01:34:34;;;;;;;;;2.00;2.00;;;;;21.33;69.53;100806.34;5032084;28;45274;-74
2023/06/30 01:37:00;;;;;;;;;3.00;2.67;;;;;21.32;69.11;100804.63;5017626;28;45846;-76
2023/06/30 01:39:25;;;;;;;;;2.67;2.00;;;;;21.30;69.32;100809.06;5019370;28;46210;-76
2023/06/30 01:41:52;;;;;;;;;2.67;2.00;;;;;21.31;68.93;100801.09;5017614;28;45411;-74
2023/06/30 01:44:18;;;;;;;;;2.00;2.00;;;;;21.37;68.96;100813.44;5019881;28;45494;-74
2023/06/30 01:46:45;;;;;;;;;2.67;1.67;;;;;21.41;67.97;100810.72;5018410;28;45519;-73
2023/06/30 01:49:12;;;;;;;;;2.00;2.00;;;;;21.41;67.82;100810.72;5032931;28;45382;-75
2023/06/30 01:51:38;;;;;;;;;3.00;2.67;;;;;21.38;68.54;100807.22;5018623;28;45525;-75
2023/06/30 01:54:03;;;;;;;;;2.33;1.00;;;;;21.41;67.72;100821.34;5033420;28;45481;-76
2023/06/30 01:56:29;;;;;;;;;2.00;1.00;;;;;21.41;67.64;100813.38;5021124;28;45569;-76
2023/06/30 01:58:54;;;;;;;;;2.00;2.00;;;;;21.40;67.87;100814.25;5032471;28;45718;-76
2023/06/30 02:01:20;;;;;;;;;3.33;2.00;;;;;21.46;67.45;100818.66;5029206;28;45540;-75
2023/06/30 02:03:47;;;;;;;;;1.67;1.67;;;;;21.40;66.82;100822.22;5036098;28;45349;-76
2023/06/30 02:06:13;;;;;;;;;2.33;2.33;;;;;21.35;66.87;100810.78;5029644;28;45521;-75
2023/06/30 02:08:38;;;;;;;;;3.00;3.00;;;;;21.41;66.80;100823.13;5031984;28;45533;-74
2023/06/30 02:11:04;;;;;;;;;2.00;2.00;;;;;21.35;67.00;100832.03;5022495;28;45819;-74
2023/06/30 02:13:29;;;;;;;;;2.00;1.33;;;;;21.35;67.35;100837.34;5034039;28;45315;-75
2023/06/30 02:15:55;;;;;;;;;2.00;1.33;;;;;21.29;66.81;100832.09;5027738;28;45299;-76
2023/06/30 02:18:22;;;;;;;;;2.67;2.00;;;;;21.26;66.53;100826.81;5026942;28;46281;-74
2023/06/30 02:20:47;;;;;;;;;2.33;2.33;;;;;21.22;67.51;100841.03;5019258;28;45479;-76
2023/06/30 02:23:13;;;;;;;;;2.00;2.00;;;;;21.19;67.01;100849.91;5033454;28;45557;-74
2023/06/30 02:25:38;;;;;;;;;3.00;2.00;;;;;21.03;67.71;100851.81;5027291;28;45367;-77
2023/06/30 02:28:04;;;;;;;;;3.00;3.00;;;;;21.03;67.56;100866.88;5032039;28;46145;-77
2023/06/30 02:30:30;;;;;;;;;3.00;2.67;;;;;20.92;66.82;100852.78;5020985;28;45877;-76
2023/06/30 02:32:55;;;;;;;;;1.67;1.67;;;;;20.93;66.76;100859.84;5034094;28;45767;-77
2023/06/30 02:35:21;;;;;;;;;1.00;1.00;;;;;20.91;66.61;100862.53;5009609;28;45612;-76
2023/06/30 02:37:46;;;;;;;;;2.67;1.67;;;;;20.94;66.68;100854.53;5023026;28;46030;-76
2023/06/30 02:40:12;;;;;;;;;2.33;1.67;;;;;20.89;66.09;100852.81;5021788;28;45311;-77
2023/06/30 02:42:37;;;;;;;;;1.33;1.00;;;;;20.68;65.76;100843.22;5034309;28;45308;-77
2023/06/30 02:45:04;;;;;;;;;5.00;1.67;;;;;20.47;66.21;100855.69;5026184;28;45369;-77
2023/06/30 02:47:30;;;;;;;;;3.33;2.67;;;;;20.50;67.64;100846.84;5024391;28;47764;-76
2023/06/30 02:49:55;;;;;;;;;2.67;1.67;;;;;20.58;67.62;100859.19;5018175;28;45402;-77
2023/06/30 02:52:21;;;;;;;;;1.67;1.67;;;;;20.64;67.08;100860.94;4997333;28;45642;-76
2023/06/30 02:54:46;;;;;;;;;2.33;1.67;;;;;20.63;66.58;100851.22;5005947;28;45524;-76
2023/06/30 02:57:12;;;;;;;;;3.33;2.67;;;;;20.65;67.20;100857.38;5034078;28;46110;-74
2023/06/30 02:59:37;;;;;;;;;3.33;1.67;;;;;20.65;66.49;100858.28;5036371;28;45489;-73
2023/06/30 03:02:03;;;;;;;;;1.67;1.33;;;;;20.66;67.01;100846.75;5018367;28;45604;-75
2023/06/30 03:04:29;;;;;;;;;4.33;1.33;;;;;20.53;67.48;100850.38;5033176;28;45416;-75
2023/06/30 03:06:54;;;;;;;;;3.00;2.00;;;;;20.46;67.53;100865.44;5020178;28;46862;-74
2023/06/30 03:09:20;;;;;;;;;2.33;2.00;;;;;20.49;67.24;100861.00;5030262;28;45165;-74
2023/06/30 03:11:45;;;;;;;;;3.00;3.00;;;;;20.52;66.79;100858.34;5029198;28;45514;-74
2023/06/30 03:14:11;;;;;;;;;3.00;2.33;;;;;20.53;67.18;100847.72;5022459;28;45519;-76
2023/06/30 03:16:37;;;;;;;;;3.00;2.00;;;;;20.51;66.78;100846.81;5032994;28;46150;-75
2023/06/30 03:19:02;;;;;;;;;2.33;2.00;;;;;20.48;67.25;100851.28;5017514;28;45549;-74
2023/06/30 03:21:28;;;;;;;;;2.67;2.33;;;;;20.45;66.77;100849.50;5015997;28;45483;-76
2023/06/30 03:23:53;;;;;;;;;2.67;1.67;;;;;20.45;66.70;100852.16;5018358;28;45451;-73
2023/06/30 03:26:19;;;;;;;;;3.67;2.67;;;;;20.43;66.85;100852.22;5001527;28;45793;-76
2023/06/30 03:28:44;;;;;;;;;2.67;2.67;;;;;20.37;67.89;100857.53;5029770;28;45730;-77
2023/06/30 03:31:10;;;;;;;;;1.33;1.00;;;;;20.31;67.10;100843.41;5016247;28;45358;-77
2023/06/30 03:33:35;;;;;;;;;0.67;0.67;;;;;20.32;67.34;100838.09;5017483;28;45579;-76
2023/06/30 03:36:01;;;;;;;;;2.67;1.67;;;;;20.42;66.80;100849.56;5033960;28;46347;-76
2023/06/30 03:38:26;;;;;;;;;2.33;1.67;;;;;20.28;67.56;100844.31;5036884;28;45527;-77
2023/06/30 03:40:52;;;;;;;;;1.33;1.33;;;;;20.32;66.86;100853.16;5019793;28;45426;-76
2023/06/30 03:43:21;;;;;;;;;2.33;2.00;;;;;20.33;66.53;100858.41;5021500;28;45462;-76
2023/06/30 03:45:46;;;;;;;;;1.67;1.67;;;;;20.35;66.46;100851.38;5032494;28;45679;-76
2023/06/30 03:48:12;;;;;;;;;1.67;1.67;;;;;20.23;66.33;100847.00;5030661;28;45792;-76
2023/06/30 03:50:41;;;;;;;;;1.67;1.67;;;;;20.28;67.22;100854.94;5026822;28;45303;-77
2023/06/30 03:53:06;;;;;;;;;3.33;3.33;;;;;20.10;66.46;100832.03;5022660;28;45718;-77
2023/06/30 03:55:32;;;;;;;;;2.00;1.67;;;;;20.19;66.12;100857.63;5025976;28;46196;-76
2023/06/30 03:57:58;;;;;;;;;3.33;3.00;;;;;20.19;66.32;100871.78;5022639;28;45360;-73
2023/06/30 04:00:23;;;;;;;;;0.67;0.67;;;;;20.13;63.99;100868.25;5034891;28;45785;-75
2023/06/30 04:02:49;;;;;;;;;3.33;3.33;;;;;20.10;63.90;100863.84;5036284;28;45370;-74
2023/06/30 04:05:14;;;;;;;;;2.00;1.67;;;;;20.18;64.02;100855.88;5020454;28;45435;-75
2023/06/30 04:07:40;;;;;;;;;1.67;1.67;;;;;20.14;64.20;100860.31;5029057;28;46113;-77
2023/06/30 04:10:06;;;;;;;;;1.67;1.67;;;;;20.21;64.64;100869.09;5021123;28;45491;-77
2023/06/30 04:12:31;;;;;;;;;3.00;1.67;;;;;20.21;64.34;100864.69;5016968;28;45632;-76
2023/06/30 04:14:57;;;;;;;;;2.00;1.33;;;;;20.26;64.44;100868.19;5016730;28;45879;-77
2023/06/30 04:17:23;;;;;;;;;1.67;0.67;;;;;20.22;65.02;100877.06;5027916;28;45506;-74
2023/06/30 04:19:48;;;;;;;;;2.00;1.67;;;;;19.80;65.55;100820.66;5019151;28;45770;-76
2023/06/30 04:22:14;;;;;;;;;4.00;2.67;;;;;20.22;65.68;100885.03;5019652;28;45647;-75
2023/06/30 04:24:39;;;;;;;;;4.00;1.67;;;;;20.04;65.96;100859.47;5018441;28;47398;-76
2023/06/30 04:27:05;;;;;;;;;2.00;2.00;;;;;20.14;65.15;100873.56;5031273;28;45517;-75
2023/06/30 04:29:30;;;;;;;;;1.00;1.00;;;;;20.19;65.22;100889.44;5027066;28;45560;-76
2023/06/30 04:31:56;;;;;;;;;2.33;1.67;;;;;20.08;65.71;100873.59;5017215;28;45460;-75
2023/06/30 04:34:21;;;;;;;;;2.67;2.00;;;;;20.16;65.16;100884.16;5016241;28;45921;-75
2023/06/30 04:36:49;;;;;;;;;3.33;2.33;;;;;20.14;65.13;100878.00;5020312;28;45479;-76
2023/06/30 04:39:15;;;;;;;;;1.67;1.67;;;;;20.06;65.29;100867.41;5035194;28;45462;-75
2023/06/30 04:41:40;;;;;;;;;2.67;1.67;;;;;20.11;64.61;100873.56;5019975;28;46523;-74
2023/06/30 04:44:06;;;;;;;;;3.33;2.33;;;;;20.02;65.04;100869.19;5026662;28;45628;-74
2023/06/30 04:46:31;;;;;;;;;2.67;2.67;;;;;20.06;64.32;100873.59;5016054;28;45432;-75
2023/06/30 04:48:58;;;;;;;;;1.67;1.67;;;;;20.09;65.05;100893.03;5017046;28;45436;-74
2023/06/30 04:51:24;;;;;;;;;2.67;2.67;;;;;20.06;64.81;100881.53;5031234;28;45524;-74
2023/06/30 04:53:50;;;;;;;;;2.33;2.33;;;;;20.02;64.69;100877.13;5025348;28;47834;-76
2023/06/30 04:56:15;;;;;;;;;2.67;2.00;;;;;19.90;66.13;100885.16;5027236;28;45339;-74
2023/06/30 04:58:41;;;;;;;;;5.67;5.00;;;;;19.74;66.65;100889.59;5041147;28;45455;-75
2023/06/30 05:01:06;;;;;;;;;2.00;2.00;;;;;19.80;65.40;100889.59;5041930;28;45519;-76
2023/06/30 05:03:32;;;;;;;;;3.00;3.00;;;;;19.59;64.98;100845.41;5026980;28;45422;-74
2023/06/30 05:05:59;;;;;;;;;3.00;2.00;;;;;19.90;64.26;100884.28;5023316;28;45465;-76
2023/06/30 05:08:24;;;;;;;;;3.00;3.00;;;;;19.89;64.37;100887.78;5013943;28;45619;-73
2023/06/30 05:10:50;;;;;;;;;3.00;3.00;;;;;19.89;64.22;100890.44;5015469;28;45299;-73
2023/06/30 05:13:15;;;;;;;;;2.00;2.00;;;;;19.91;64.45;100888.66;5020886;28;46406;-74
2023/06/30 05:15:41;;;;;;;;;1.33;1.33;;;;;19.91;63.71;100884.25;5003828;28;45662;-76
2023/06/30 05:18:06;;;;;;;;;2.00;2.00;;;;;19.92;64.03;100893.97;5029680;28;46731;-74
2023/06/30 05:20:33;;;;;;;;;2.33;1.67;;;;;19.86;64.06;100891.34;5031441;28;45438;-75
2023/06/30 05:22:59;;;;;;;;;2.67;2.00;;;;;19.80;64.20;100884.28;5023022;28;45935;-76
2023/06/30 05:25:25;;;;;;;;;1.00;1.00;;;;;19.90;63.88;100902.84;5024998;28;45346;-76
2023/06/30 05:27:51;;;;;;;;;1.67;1.67;;;;;19.82;63.06;100894.88;5027291;28;45440;-76
2023/06/30 05:30:16;;;;;;;;;2.33;2.00;;;;;19.84;63.61;100909.03;5036684;28;45368;-76
2023/06/30 05:32:42;;;;;;;;;3.00;3.00;;;;;19.82;64.82;100919.63;5030213;28;45415;-75
2023/06/30 05:35:07;;;;;;;;;3.00;2.67;;;;;19.72;63.99;100903.75;5041984;28;45334;-76
2023/06/30 05:37:33;;;;;;;;;2.00;1.00;;;;;19.79;63.45;100902.84;5041582;28;45244;-75
2023/06/30 05:39:58;;;;;;;;;1.00;1.00;;;;;19.86;63.90;100905.47;5039612;28;45424;-76
2023/06/30 05:42:24;;;;;;;;;2.00;1.33;;;;;19.78;63.92;100893.13;5020633;28;46757;-77
2023/06/30 05:44:50;;;;;;;;;2.00;2.00;;;;;19.82;63.77;100913.44;5024525;28;45386;-77
2023/06/30 05:47:16;;;;;;;;;3.00;3.00;;;;;19.80;63.81;100904.63;5033484;28;45414;-77
2023/06/30 05:49:42;;;;;;;;;3.00;2.00;;;;;19.84;63.82;100912.56;5032341;28;45593;-76
2023/06/30 05:52:07;;;;;;;;;2.67;0.67;;;;;19.86;63.02;100909.91;5041228;28;46089;-76
2023/06/30 05:54:33;;;;;;;;;3.00;1.67;;;;;19.84;64.30;100923.16;5029741;28;45493;-73
2023/06/30 05:56:58;;;;;;;;;1.00;1.00;;;;;19.82;64.75;100913.44;5022109;28;45509;-75
2023/06/30 05:59:25;;;;;;;;;2.00;1.33;;;;;19.88;64.85;100915.22;5031527;28;45528;-76
2023/06/30 06:01:50;;;;;;;;;2.33;2.00;;;;;19.93;63.64;100908.97;5026122;28;47832;-75
2023/06/30 06:04:18;;;;;;;;;2.00;2.00;;;;;19.97;63.41;100908.09;5020680;28;45466;-75
2023/06/30 06:06:43;;;;;;;;;1.00;1.00;;;;;19.95;63.21;100904.56;5032506;28;45497;-72
2023/06/30 06:09:09;;;;;;;;;2.00;1.00;;;;;19.95;63.61;100912.50;5019156;28;45371;-75
2023/06/30 06:11:34;;;;;;;;;4.00;3.00;;;;;19.87;64.65;100906.34;5031336;28;46826;-76
2023/06/30 06:14:00;;;;;;;;;2.33;2.00;;;;;19.90;64.28;100911.66;5035977;28;45423;-76
2023/06/30 06:16:26;;;;;;;;;3.00;3.00;;;;;19.92;64.34;100915.19;5018583;28;45424;-77
2023/06/30 06:18:51;;;;;;;;;1.00;1.00;;;;;19.96;64.29;100911.63;5027860;28;45347;-75
2023/06/30 06:21:17;;;;;;;;;4.67;2.33;;;;;19.91;64.53;100901.94;5024691;28;45875;-76
2023/06/30 06:23:43;;;;;;;;;1.00;1.00;;;;;19.97;63.51;100913.38;5017746;28;45655;-75
2023/06/30 06:26:09;;;;;;;;;2.00;1.00;;;;;20.07;62.30;100914.25;5028729;28;45531;-76
2023/06/30 06:28:34;;;;;;;;;1.67;1.33;;;;;20.18;62.52;100923.06;5012798;28;45447;-77
2023/06/30 06:30:59;;;;;;;;;1.67;1.67;;;;;20.27;61.43;100903.56;5015853;28;46011;-76
2023/06/30 06:33:25;;;;;;;;;5.00;4.00;;;;;20.49;61.59;100916.72;5025544;28;45544;-76
2023/06/30 06:35:51;;;;;;;;;1.33;1.33;;;;;20.56;61.12;100905.22;5018494;28;45454;-76
2023/06/30 06:38:18;;;;;;;;;2.00;2.00;;;;;20.74;61.84;100915.75;5024068;28;45947;-77
2023/06/30 06:40:47;;;;;;;;;0.67;0.00;;;;;20.85;62.05;100921.88;5017831;28;45928;-78
2023/06/30 06:43:12;;;;;;;;;2.00;1.33;;;;;20.93;59.92;100924.50;5017799;28;45419;-76
2023/06/30 06:45:38;;;;;;;;;1.00;1.00;;;;;20.93;61.68;100910.31;5030876;28;45579;-77
2023/06/30 06:48:26;;;;;;;;;4.33;4.00;;;;;20.92;62.66;100928.03;5030821;28;45363;-77
2023/06/30 06:51:00;;;;;;;;;2.00;1.67;;;;;20.94;61.27;100934.19;5030400;28;45265;-77
2023/06/30 06:53:30;;;;;;;;;2.00;0.67;;;;;20.96;60.95;100931.53;5016364;28;45474;-77
2023/06/30 06:55:56;;;;;;;;;2.00;1.67;;;;;20.95;60.00;100922.72;5037458;28;45392;-77
2023/06/30 06:58:24;;;;;;;;;1.33;1.33;;;;;21.02;60.55;100928.84;5028281;28;45453;-76
2023/06/30 07:00:51;;;;;;;;;1.33;1.33;;;;;21.05;60.59;100928.84;5017997;28;46986;-77
2023/06/30 07:03:17;;;;;;;;;0.67;0.67;;;;;21.12;60.10;100924.34;5032118;28;45426;-77
2023/06/30 07:05:46;;;;;;;;;1.00;1.00;;;;;21.08;60.62;100928.78;5018314;28;45189;-77
2023/06/30 07:08:13;;;;;;;;;2.00;1.00;;;;;21.13;60.74;100937.63;5028665;28;45457;-77
2023/06/30 07:10:38;;;;;;;;;3.67;3.67;;;;;21.20;61.45;100939.31;5037900;28;46128;-77
2023/06/30 07:13:04;;;;;;;;;4.00;3.00;;;;;21.23;61.81;100941.97;5034398;28;45433;-76
2023/06/30 07:15:30;;;;;;;;;1.00;1.00;;;;;21.16;61.58;100932.28;5037170;28;45454;-77
2023/06/30 07:17:56;;;;;;;;;1.00;1.00;;;;;21.46;59.97;100951.56;5037625;28;45429;-77
2023/06/30 07:20:23;;;;;;;;;3.33;3.00;;;;;22.01;60.24;100955.47;5022475;28;45609;-77
2023/06/30 07:22:48;;;;;;;;;3.00;3.00;;;;;22.52;58.88;100953.16;5016987;28;45549;-77
2023/06/30 07:25:14;;;;;;;;;3.00;3.00;;;;;22.70;58.47;100952.03;5017539;28;45897;-77
2023/06/30 07:27:40;;;;;;;;;4.00;4.00;;;;;22.95;57.64;100941.00;5026029;28;45688;-76
2023/06/30 07:30:06;;;;;;;;;2.67;2.00;;;;;23.35;56.34;100932.41;5017554;28;45496;-77
2023/06/30 07:32:34;;;;;;;;;1.33;1.33;;;;;25.19;52.55;100946.53;5026796;28;45639;-78
2023/06/30 07:35:02;;;;;;;;;0.33;0.33;;;;;27.58;48.07;100938.75;5023172;28;45410;-78
2023/06/30 07:37:28;;;;;;;;;5.00;4.00;;;;;28.96;45.96;100943.50;5034911;28;45492;-77
2023/06/30 07:39:53;;;;;;;;;2.00;2.00;;;;;30.89;39.13;100933.25;5037016;28;45243;-78
2023/06/30 07:42:19;;;;;;;;;1.00;1.00;;;;;32.53;35.95;100941.91;5036888;28;45244;-78
2023/06/30 07:44:44;;;;;;;;;2.00;1.67;;;;;34.25;33.62;100949.91;5025187;28;45414;-77
2023/06/30 07:47:10;;;;;;;;;2.33;2.33;;;;;35.04;32.46;100946.63;5033085;28;45521;-76
2023/06/30 07:49:36;;;;;;;;;2.67;1.33;;;;;35.31;31.38;100955.75;5016211;28;46873;-79
2023/06/30 07:52:01;;;;;;;;;2.00;1.00;;;;;36.50;31.17;100954.69;5016535;28;45502;-77
2023/06/30 07:54:27;;;;;;;;;1.67;1.67;;;;;37.32;28.99;100945.97;5020911;28;45526;-78
2023/06/30 07:56:52;;;;;;;;;0.67;0.00;;;;;36.21;32.55;100949.53;5016997;28;45507;-78
2023/06/30 07:59:18;;;;;;;;;1.67;0.67;;;;;34.59;32.27;100955.91;5032704;28;45396;-78
2023/06/30 08:01:44;;;;;;;;;0.33;0.00;;;;;33.01;33.97;100944.66;5021682;28;45522;-78
2023/06/30 08:04:11;;;;;;;;;1.00;1.00;;;;;31.91;36.89;100963.25;5024823;28;45572;-77
2023/06/30 08:06:36;;;;;;;;;1.67;1.00;;;;;31.42;36.67;100961.22;5030862;28;45447;-78
2023/06/30 08:09:02;;;;;;;;;1.00;1.00;;;;;30.97;37.66;100961.69;5035259;28;46026;-78
2023/06/30 08:11:27;;;;;;;;;2.00;1.67;;;;;31.29;37.84;100954.69;5030097;28;45498;-78
2023/06/30 08:13:53;;;;;;;;;1.00;1.00;;;;;30.88;37.78;100963.00;5026744;28;45504;-77
2023/06/30 08:16:18;;;;;;;;;1.00;1.00;;;;;30.49;38.23;100963.94;5022752;28;45553;-78
2023/06/30 08:18:45;;;;;;;;;4.00;1.00;;;;;29.63;39.58;100955.13;5017995;28;45455;-78
2023/06/30 08:21:10;;;;;;;;;1.33;1.00;;;;;29.11;42.01;100958.19;5029419;28;45649;-78
2023/06/30 08:23:36;;;;;;;;;1.00;1.00;;;;;28.74;41.92;100966.81;5025532;28;45262;-78
2023/06/30 08:26:02;;;;;;;;;1.00;1.00;;;;;28.29;42.54;100957.72;5035814;28;45488;-78
2023/06/30 08:28:27;;;;;;;;;3.00;2.33;;;;;27.91;42.85;100962.69;5030938;28;46044;-78
2023/06/30 08:30:54;;;;;;;;;3.00;3.00;;;;;27.59;43.45;100958.41;5020980;28;45511;-78
2023/06/30 08:33:25;;;;;;;;;2.00;1.00;;;;;27.15;44.01;100961.59;5018567;28;45504;-78
2023/06/30 08:35:51;;;;;;;;;1.67;1.67;;;;;26.85;45.08;100962.59;5016317;28;45562;-79
2023/06/30 08:38:16;;;;;;;;;1.00;1.00;;;;;26.68;45.60;100955.03;5029050;28;46032;-89
2023/06/30 08:40:42;;;;;;;;;2.00;2.00;;;;;27.65;44.14;100966.22;5018373;28;45370;-78
2023/06/30 08:43:11;;;;;;;;;2.33;2.00;;;;;28.63;43.02;100948.41;5025267;28;45389;-78
2023/06/30 08:45:39;;;;;;;;;1.00;1.00;;;;;29.21;42.30;100960.47;5020613;28;45425;-80
2023/06/30 08:48:05;;;;;;;;;1.00;1.00;;;;;31.24;39.49;100959.47;5015669;28;46404;-79
2023/06/30 08:50:35;;;;;;;;;1.00;1.00;;;;;33.21;35.76;100955.22;5015346;28;45435;-79
2023/06/30 08:53:02;;;;;;;;;1.00;0.33;;;;;34.67;31.80;100946.31;5016430;28;45430;-79
2023/06/30 08:55:29;;;;;;;;;0.67;0.33;;;;;36.14;31.56;100950.91;5030924;28;45457;-80
2023/06/30 08:57:56;;;;;;;;;0.67;0.67;;;;;36.56;28.50;100951.53;5015100;28;45302;-80
2023/06/30 09:00:22;;;;;;;;;1.00;0.00;;;;;36.70;27.11;100933.34;5015708;28;45482;-85
2023/06/30 09:02:49;;;;;;;;;1.33;1.00;;;;;35.35;28.33;100938.28;5029780;28;45518;-82
2023/06/30 09:05:15;;;;;;;;;2.67;0.67;;;;;34.42;29.51;100947.00;5016822;28;45415;-85
2023/06/30 09:07:57;;;;;;;;;1.33;1.33;;;;;32.99;30.59;100939.34;5015948;28;46158;-83
2023/06/30 09:10:37;;;;;;;;;2.00;2.00;;;;;32.00;33.87;100942.97;5013182;28;45518;-90
2023/06/30 09:13:04;;;;;;;;;1.00;1.00;;;;;31.44;35.44;100956.63;5014134;28;45368;-83
2023/06/30 09:15:31;;;;;;;;;3.00;2.00;;;;;30.97;35.46;100940.09;5014273;28;45566;-93
2023/06/30 09:17:56;;;;;;;;;1.00;1.00;;;;;30.62;37.15;100967.81;5014318;28;47069;-83
2023/06/30 09:20:22;;;;;;;;;0.67;0.67;;;;;30.07;36.78;100956.84;5015249;28;45586;-80
2023/06/30 09:22:48;;;;;;;;;0.00;0.00;;;;;29.91;37.56;100965.59;5015426;28;45586;-81
2023/06/30 09:25:25;;;;;;;;;1.67;0.00;;;;;29.84;36.75;100958.72;5016131;28;45470;-79
2023/06/30 09:27:52;;;;;;;;;1.00;0.33;;;;;29.82;36.94;100962.41;5015082;28;45719;-78
2023/06/30 09:30:18;;;;;;;;;2.00;2.00;;;;;29.80;37.07;100959.78;5012730;28;45434;-80
2023/06/30 09:32:44;;;;;;;;;0.33;0.33;;;;;30.13;36.61;100957.41;5015798;28;45468;-79
2023/06/30 09:35:14;;;;;;;;;0.00;0.00;;;;;30.70;35.97;100962.06;5022476;28;45520;-83
2023/06/30 09:37:44;;;;;;;;;1.33;0.67;;;;;32.27;33.20;100941.53;5011661;28;47116;-83
2023/06/30 09:40:12;;;;;;;;;1.00;1.00;;;;;33.00;31.60;100949.19;5017438;28;45557;-86
2023/06/30 09:42:38;;;;;;;;;0.67;0.67;;;;;34.12;31.61;100952.47;5008143;28;45556;-85
2023/06/30 09:45:04;;;;;;;;;0.67;0.00;;;;;34.70;30.34;100947.06;5007071;28;45467;-77
2023/06/30 09:47:30;;;;;;;;;0.00;0.00;;;;;34.27;29.56;100929.00;5011976;28;46210;-85
2023/06/30 09:49:56;;;;;;;;;3.33;1.67;;;;;33.75;31.37;100952.06;5010962;28;45450;-84
2023/06/30 09:52:25;;;;;;;;;1.00;0.00;;;;;33.00;31.34;100949.19;5018996;28;45528;-84
2023/06/30 09:54:50;;;;;;;;;1.00;1.00;;;;;32.35;32.13;100967.25;5018113;28;45629;-83
2023/06/30 09:57:16;;;;;;;;;0.00;0.00;;;;;32.01;33.17;100944.75;5020108;28;45371;-84
2023/06/30 09:59:45;;;;;;;;;0.33;0.33;;;;;31.80;33.38;100961.13;5032019;28;45338;-85
2023/06/30 10:02:13;;;;;;;;;2.33;1.33;;;;;31.49;34.46;100968.09;5019676;28;45564;-85
2023/06/30 10:04:39;;;;;;;;;1.00;1.00;;;;;31.14;34.49;100913.19;5019787;28;45557;-85
2023/06/30 10:07:06;;;;;;;;;2.00;1.00;;;;;31.20;34.38;100960.56;5019222;28;45451;-85
2023/06/30 10:09:35;;;;;;;;;0.67;0.67;;;;;30.88;34.82;100966.59;5009215;28;45465;-85
2023/06/30 10:12:02;;;;;;;;;1.00;0.33;;;;;30.92;33.78;100953.84;5032415;28;45467;-84
2023/06/30 10:14:30;;;;;;;;;1.00;1.00;;;;;30.44;33.99;100960.56;5022302;28;45601;-80
2023/06/30 10:17:03;;;;;;;;;0.67;0.67;;;;;30.30;33.91;100950.38;5016696;28;45562;-79
2023/06/30 10:19:30;;;;;;;;;31.67;30.00;;;;;30.48;35.53;100960.38;5017106;28;45438;-79
2023/06/30 10:21:56;;;;;;;;;1.00;1.00;;;;;30.70;34.99;100962.06;5018703;28;45215;-78
2023/06/30 10:24:37;;;;;;;;;2.33;2.00;;;;;31.01;35.31;100960.59;5022459;28;45344;-74
2023/06/30 10:27:08;;;;;;;;;0.67;0.67;;;;;31.18;35.13;100962.44;5020626;28;45365;-76
2023/06/30 10:29:35;;;;;;;;;1.00;0.00;;;;;31.21;34.10;100965.00;5016390;28;45737;-80
2023/06/30 10:32:01;;;;;;;;;1.00;1.00;;;;;31.75;33.91;100946.97;5017766;28;45790;-80
2023/06/30 10:34:31;;;;;;;;;7.67;5.67;;;;;32.74;33.36;100955.22;5017484;28;45503;-76
2023/06/30 10:36:59;;;;;;;;;1.00;1.00;;;;;33.40;30.63;100954.13;5020743;28;45366;-81
2023/06/30 10:39:27;;;;;;;;;0.00;0.00;;;;;34.02;31.31;100957.63;5023508;28;45518;-87
2023/06/30 10:41:57;;;;;;;;;0.00;0.00;;;;;34.08;31.09;100956.34;5006048;28;45586;-78
2023/06/30 10:44:36;;;;;;;;;0.67;0.67;;;;;33.74;30.58;100916.91;5022875;28;45851;-82
2023/06/30 10:47:02;;;;;;;;;0.33;0.00;;;;;33.35;31.12;100959.84;5020716;28;46401;-79
2023/06/30 10:49:29;;;;;;;;;0.00;0.00;;;;;33.01;30.86;100963.59;5022507;28;45181;-82
2023/06/30 10:51:58;;;;;;;;;1.00;1.00;;;;;32.37;31.43;100968.94;5020530;28;45449;-76
2023/06/30 10:54:29;;;;;;;;;1.00;0.67;;;;;31.69;33.65;100966.19;5022325;28;45758;-75
2023/06/30 10:57:13;;;;;;;;;1.00;1.00;;;;;30.50;33.95;100980.03;5023934;28;46022;-78
2023/06/30 10:59:42;;;;;;;;;0.00;0.00;;;;;30.21;34.51;100969.69;5028186;28;45459;-83
2023/06/30 11:02:12;;;;;;;;;1.00;0.00;;;;;29.66;35.33;100956.78;5023484;28;45430;-81
2023/06/30 11:04:41;;;;;;;;;1.00;1.00;;;;;29.82;35.74;100975.88;5024036;28;45622;-79
2023/06/30 11:07:11;;;;;;;;;1.00;1.00;;;;;29.57;36.24;100976.06;5024787;28;45405;-79
2023/06/30 11:09:47;;;;;;;;;26.00;26.00;;;;;29.29;37.33;100972.69;5023640;28;45308;-75
2023/06/30 11:12:20;;;;;;;;;2.00;1.00;;;;;29.51;37.06;100964.59;5021108;28;45406;-75
2023/06/30 11:14:56;;;;;;;;;1.33;1.00;;;;;29.66;36.79;100981.88;5021186;28;45399;-77
2023/06/30 11:17:22;;;;;;;;;1.00;1.00;;;;;29.88;36.80;100970.22;5023498;28;45573;-76
2023/06/30 11:20:11;;;;;;;;;1.00;1.00;;;;;29.35;37.30;100977.81;5021869;28;45218;-76
2023/06/30 11:22:41;;;;;;;;;0.67;0.67;;;;;29.35;36.67;100982.34;5020919;28;45401;-76
2023/06/30 11:25:11;;;;;;;;;1.00;1.00;;;;;29.12;36.96;100981.44;5041779;28;45365;-74